sensor_id;sensor_type;location;lat;lon;timestamp;P1;durP1;ratioP1;P2;durP2;ratioP2
52322;SDS011;38263;52.920;6.238;2023-06-22T00:01:56;13.10;;;8.90;;
52322;SDS011;38263;52.920;6.238;2023-06-22T00:04:22;10.65;;;7.97;;
52322;SDS011;38263;52.920;6.238;2023-06-22T00:06:47;6.03;;;4.63;;
52322;SDS011;38263;52.920;6.238;2023-06-22T00:09:13;5.63;;;4.65;;
52322;SDS011;38263;52.920;6.238;2023-06-22T00:11:39;5.57;;;4.68;;
52322;SDS011;38263;52.920;6.238;2023-06-22T00:14:05;6.15;;;4.55;;
52322;SDS011;38263;52.920;6.238;2023-06-22T00:16:34;13.48;;;7.57;;
52322;SDS011;38263;52.920;6.238;2023-06-22T00:19:00;9.25;;;7.75;;
52322;SDS011;38263;52.920;6.238;2023-06-22T00:21:27;7.40;;;6.38;;
52322;SDS011;38263;52.920;6.238;2023-06-22T00:23:53;9.85;;;5.82;;
52322;SDS011;38263;52.920;6.238;2023-06-22T00:26:19;29.08;;;6.90;;
52322;SDS011;38263;52.920;6.238;2023-06-22T00:28:45;20.88;;;7.68;;
52322;SDS011;38263;52.920;6.238;2023-06-22T00:31:11;54.50;;;7.28;;
52322;SDS011;38263;52.920;6.238;2023-06-22T00:33:37;13.68;;;6.40;;
52322;SDS011;38263;52.920;6.238;2023-06-22T00:36:03;10.27;;;4.82;;
52322;SDS011;38263;52.920;6.238;2023-06-22T00:38:29;14.23;;;6.03;;
52322;SDS011;38263;52.920;6.238;2023-06-22T00:40:56;6.82;;;5.40;;
52322;SDS011;38263;52.920;6.238;2023-06-22T00:43:22;37.75;;;11.05;;
52322;SDS011;38263;52.920;6.238;2023-06-22T00:45:48;13.07;;;9.85;;
52322;SDS011;38263;52.920;6.238;2023-06-22T00:48:13;12.85;;;10.77;;
52322;SDS011;38263;52.920;6.238;2023-06-22T00:50:40;9.43;;;8.40;;
52322;SDS011;38263;52.920;6.238;2023-06-22T00:53:06;11.70;;;9.63;;
52322;SDS011;38263;52.920;6.238;2023-06-22T00:55:37;13.98;;;7.32;;
52322;SDS011;38263;52.920;6.238;2023-06-22T00:58:07;7.43;;;5.55;;
52322;SDS011;38263;52.920;6.238;2023-06-22T01:00:35;11.20;;;8.77;;
52322;SDS011;38263;52.920;6.238;2023-06-22T01:03:02;12.50;;;7.72;;
52322;SDS011;38263;52.920;6.238;2023-06-22T01:05:28;8.18;;;7.18;;
52322;SDS011;38263;52.920;6.238;2023-06-22T01:08:00;8.27;;;6.38;;
52322;SDS011;38263;52.920;6.238;2023-06-22T01:13:24;4.80;;;4.30;;
52322;SDS011;38263;52.920;6.238;2023-06-22T01:15:53;6.90;;;4.82;;
52322;SDS011;38263;52.920;6.238;2023-06-22T01:18:24;5.43;;;4.60;;
52322;SDS011;38263;52.920;6.238;2023-06-22T01:20:53;6.75;;;5.72;;
52322;SDS011;38263;52.920;6.238;2023-06-22T01:26:35;21.40;;;8.02;;
52322;SDS011;38263;52.920;6.238;2023-06-22T01:29:04;9.90;;;6.63;;
52322;SDS011;38263;52.920;6.238;2023-06-22T01:31:32;7.07;;;5.55;;
52322;SDS011;38263;52.920;6.238;2023-06-22T01:34:01;23.17;;;6.65;;
52322;SDS011;38263;52.920;6.238;2023-06-22T01:36:29;6.57;;;5.93;;
52322;SDS011;38263;52.920;6.238;2023-06-22T01:38:56;11.15;;;6.43;;
52322;SDS011;38263;52.920;6.238;2023-06-22T01:41:25;34.28;;;9.45;;
52322;SDS011;38263;52.920;6.238;2023-06-22T01:43:53;8.80;;;7.85;;
52322;SDS011;38263;52.920;6.238;2023-06-22T01:46:19;32.33;;;8.98;;
52322;SDS011;38263;52.920;6.238;2023-06-22T01:48:46;13.90;;;9.02;;
52322;SDS011;38263;52.920;6.238;2023-06-22T01:51:12;68.22;;;11.07;;
52322;SDS011;38263;52.920;6.238;2023-06-22T01:53:39;39.58;;;9.82;;
52322;SDS011;38263;52.920;6.238;2023-06-22T01:56:05;29.17;;;8.40;;
52322;SDS011;38263;52.920;6.238;2023-06-22T01:58:31;9.93;;;8.93;;
52322;SDS011;38263;52.920;6.238;2023-06-22T02:01:00;8.30;;;7.50;;
52322;SDS011;38263;52.920;6.238;2023-06-22T02:03:41;10.68;;;8.23;;
52322;SDS011;38263;52.920;6.238;2023-06-22T02:06:14;35.13;;;10.00;;
52322;SDS011;38263;52.920;6.238;2023-06-22T02:08:49;15.00;;;9.95;;
52322;SDS011;38263;52.920;6.238;2023-06-22T02:13:46;10.80;;;9.65;;
52322;SDS011;38263;52.920;6.238;2023-06-22T02:16:12;21.33;;;9.95;;
52322;SDS011;38263;52.920;6.238;2023-06-22T02:18:39;78.88;;;12.27;;
52322;SDS011;38263;52.920;6.238;2023-06-22T02:21:11;10.85;;;9.77;;
52322;SDS011;38263;52.920;6.238;2023-06-22T02:23:37;10.00;;;9.10;;
52322;SDS011;38263;52.920;6.238;2023-06-22T02:26:03;20.27;;;10.43;;
52322;SDS011;38263;52.920;6.238;2023-06-22T02:28:29;176.15;;;17.95;;
52322;SDS011;38263;52.920;6.238;2023-06-22T02:30:55;41.30;;;13.38;;
52322;SDS011;38263;52.920;6.238;2023-06-22T02:33:20;13.10;;;11.80;;
52322;SDS011;38263;52.920;6.238;2023-06-22T02:35:46;12.68;;;11.38;;
52322;SDS011;38263;52.920;6.238;2023-06-22T02:38:14;12.55;;;11.25;;
52322;SDS011;38263;52.920;6.238;2023-06-22T02:40:40;11.60;;;10.40;;
52322;SDS011;38263;52.920;6.238;2023-06-22T02:43:06;10.82;;;9.60;;
52322;SDS011;38263;52.920;6.238;2023-06-22T02:45:32;10.40;;;9.40;;
52322;SDS011;38263;52.920;6.238;2023-06-22T02:47:57;10.18;;;9.18;;
52322;SDS011;38263;52.920;6.238;2023-06-22T02:50:23;9.90;;;8.90;;
52322;SDS011;38263;52.920;6.238;2023-06-22T02:52:50;11.35;;;10.35;;
52322;SDS011;38263;52.920;6.238;2023-06-22T02:55:16;9.88;;;9.00;;
52322;SDS011;38263;52.920;6.238;2023-06-22T02:57:42;9.32;;;8.52;;
52322;SDS011;38263;52.920;6.238;2023-06-22T03:00:09;9.82;;;8.98;;
52322;SDS011;38263;52.920;6.238;2023-06-22T03:02:48;10.98;;;9.88;;
52322;SDS011;38263;52.920;6.238;2023-06-22T03:05:14;12.07;;;10.27;;
52322;SDS011;38263;52.920;6.238;2023-06-22T03:07:43;11.55;;;10.55;;
52322;SDS011;38263;52.920;6.238;2023-06-22T03:10:09;145.82;;;14.50;;
52322;SDS011;38263;52.920;6.238;2023-06-22T03:12:36;44.38;;;12.48;;
52322;SDS011;38263;52.920;6.238;2023-06-22T03:15:03;26.40;;;11.90;;
52322;SDS011;38263;52.920;6.238;2023-06-22T03:17:33;11.35;;;10.35;;
52322;SDS011;38263;52.920;6.238;2023-06-22T03:19:59;80.03;;;12.80;;
52322;SDS011;38263;52.920;6.238;2023-06-22T03:22:25;50.13;;;12.80;;
52322;SDS011;38263;52.920;6.238;2023-06-22T03:24:51;44.25;;;13.32;;
52322;SDS011;38263;52.920;6.238;2023-06-22T03:27:16;49.35;;;13.77;;
52322;SDS011;38263;52.920;6.238;2023-06-22T03:29:43;168.05;;;17.30;;
52322;SDS011;38263;52.920;6.238;2023-06-22T03:32:09;97.00;;;15.82;;
52322;SDS011;38263;52.920;6.238;2023-06-22T03:34:35;103.60;;;16.60;;
52322;SDS011;38263;52.920;6.238;2023-06-22T03:37:01;40.25;;;13.70;;
52322;SDS011;38263;52.920;6.238;2023-06-22T03:39:28;103.15;;;15.73;;
52322;SDS011;38263;52.920;6.238;2023-06-22T03:41:53;21.80;;;13.45;;
52322;SDS011;38263;52.920;6.238;2023-06-22T03:44:19;12.90;;;11.70;;
52322;SDS011;38263;52.920;6.238;2023-06-22T03:46:45;10.63;;;9.73;;
52322;SDS011;38263;52.920;6.238;2023-06-22T03:49:10;28.73;;;14.02;;
52322;SDS011;38263;52.920;6.238;2023-06-22T03:51:36;16.00;;;12.57;;
52322;SDS011;38263;52.920;6.238;2023-06-22T03:54:02;48.13;;;13.70;;
52322;SDS011;38263;52.920;6.238;2023-06-22T03:56:28;67.75;;;15.57;;
52322;SDS011;38263;52.920;6.238;2023-06-22T03:58:54;18.20;;;11.63;;
52322;SDS011;38263;52.920;6.238;2023-06-22T04:01:20;50.45;;;14.75;;
52322;SDS011;38263;52.920;6.238;2023-06-22T04:03:45;14.15;;;12.85;;
52322;SDS011;38263;52.920;6.238;2023-06-22T04:06:13;50.33;;;15.27;;
52322;SDS011;38263;52.920;6.238;2023-06-22T04:08:39;20.75;;;12.68;;
52322;SDS011;38263;52.920;6.238;2023-06-22T04:11:05;14.20;;;12.70;;
52322;SDS011;38263;52.920;6.238;2023-06-22T04:13:31;37.58;;;15.00;;
52322;SDS011;38263;52.920;6.238;2023-06-22T04:15:57;15.32;;;13.85;;
52322;SDS011;38263;52.920;6.238;2023-06-22T04:18:23;13.68;;;12.48;;
52322;SDS011;38263;52.920;6.238;2023-06-22T04:20:49;15.77;;;14.30;;
52322;SDS011;38263;52.920;6.238;2023-06-22T04:23:15;18.27;;;16.38;;
52322;SDS011;38263;52.920;6.238;2023-06-22T04:25:40;13.73;;;12.52;;
52322;SDS011;38263;52.920;6.238;2023-06-22T04:28:06;14.50;;;13.10;;
52322;SDS011;38263;52.920;6.238;2023-06-22T04:30:37;14.65;;;13.07;;
52322;SDS011;38263;52.920;6.238;2023-06-22T04:33:11;18.05;;;15.98;;
52322;SDS011;38263;52.920;6.238;2023-06-22T04:35:37;35.22;;;20.85;;
52322;SDS011;38263;52.920;6.238;2023-06-22T04:38:06;29.70;;;19.98;;
52322;SDS011;38263;52.920;6.238;2023-06-22T04:40:32;26.35;;;20.95;;
52322;SDS011;38263;52.920;6.238;2023-06-22T04:42:58;24.55;;;20.73;;
52322;SDS011;38263;52.920;6.238;2023-06-22T04:45:27;28.58;;;21.92;;
52322;SDS011;38263;52.920;6.238;2023-06-22T04:47:53;24.98;;;20.98;;
52322;SDS011;38263;52.920;6.238;2023-06-22T04:50:19;29.20;;;21.15;;
52322;SDS011;38263;52.920;6.238;2023-06-22T04:52:46;25.05;;;21.20;;
52322;SDS011;38263;52.920;6.238;2023-06-22T04:55:12;23.00;;;20.55;;
52322;SDS011;38263;52.920;6.238;2023-06-22T04:57:37;26.08;;;22.73;;
52322;SDS011;38263;52.920;6.238;2023-06-22T05:00:04;27.60;;;24.60;;
52322;SDS011;38263;52.920;6.238;2023-06-22T05:02:38;27.83;;;23.75;;
52322;SDS011;38263;52.920;6.238;2023-06-22T05:05:04;34.05;;;25.38;;
52322;SDS011;38263;52.920;6.238;2023-06-22T05:07:35;25.67;;;20.77;;
52322;SDS011;38263;52.920;6.238;2023-06-22T05:10:01;25.25;;;20.77;;
52322;SDS011;38263;52.920;6.238;2023-06-22T05:12:30;26.38;;;22.30;;
52322;SDS011;38263;52.920;6.238;2023-06-22T05:14:56;28.20;;;23.73;;
52322;SDS011;38263;52.920;6.238;2023-06-22T05:17:22;29.13;;;23.08;;
52322;SDS011;38263;52.920;6.238;2023-06-22T05:19:47;25.85;;;21.60;;
52322;SDS011;38263;52.920;6.238;2023-06-22T05:22:16;25.35;;;21.45;;
52322;SDS011;38263;52.920;6.238;2023-06-22T05:24:42;31.05;;;24.27;;
52322;SDS011;38263;52.920;6.238;2023-06-22T05:27:08;29.48;;;23.63;;
52322;SDS011;38263;52.920;6.238;2023-06-22T05:29:35;30.55;;;24.35;;
52322;SDS011;38263;52.920;6.238;2023-06-22T05:32:04;27.23;;;22.98;;
52322;SDS011;38263;52.920;6.238;2023-06-22T05:34:30;30.27;;;23.80;;
52322;SDS011;38263;52.920;6.238;2023-06-22T05:36:56;29.38;;;22.77;;
52322;SDS011;38263;52.920;6.238;2023-06-22T05:39:23;28.55;;;23.73;;
52322;SDS011;38263;52.920;6.238;2023-06-22T05:41:49;29.35;;;22.65;;
52322;SDS011;38263;52.920;6.238;2023-06-22T05:44:15;27.73;;;22.48;;
52322;SDS011;38263;52.920;6.238;2023-06-22T05:46:40;27.52;;;22.20;;
52322;SDS011;38263;52.920;6.238;2023-06-22T05:49:14;27.92;;;22.63;;
52322;SDS011;38263;52.920;6.238;2023-06-22T05:51:40;26.38;;;20.98;;
52322;SDS011;38263;52.920;6.238;2023-06-22T05:54:06;25.90;;;20.13;;
52322;SDS011;38263;52.920;6.238;2023-06-22T05:56:33;24.67;;;18.67;;
52322;SDS011;38263;52.920;6.238;2023-06-22T05:58:59;21.55;;;18.27;;
52322;SDS011;38263;52.920;6.238;2023-06-22T06:01:25;19.13;;;16.10;;
52322;SDS011;38263;52.920;6.238;2023-06-22T06:03:51;20.30;;;15.95;;
52322;SDS011;38263;52.920;6.238;2023-06-22T06:06:17;20.77;;;15.60;;
52322;SDS011;38263;52.920;6.238;2023-06-22T06:08:46;19.08;;;14.68;;
52322;SDS011;38263;52.920;6.238;2023-06-22T06:11:11;17.35;;;14.20;;
52322;SDS011;38263;52.920;6.238;2023-06-22T06:13:37;19.42;;;13.63;;
52322;SDS011;38263;52.920;6.238;2023-06-22T06:16:03;15.40;;;13.15;;
52322;SDS011;38263;52.920;6.238;2023-06-22T06:18:29;19.15;;;13.77;;
52322;SDS011;38263;52.920;6.238;2023-06-22T06:20:55;20.40;;;12.63;;
52322;SDS011;38263;52.920;6.238;2023-06-22T06:23:21;15.32;;;12.23;;
52322;SDS011;38263;52.920;6.238;2023-06-22T06:25:46;14.07;;;10.75;;
52322;SDS011;38263;52.920;6.238;2023-06-22T06:28:12;14.70;;;11.48;;
52322;SDS011;38263;52.920;6.238;2023-06-22T06:30:37;15.13;;;10.70;;
52322;SDS011;38263;52.920;6.238;2023-06-22T06:33:05;12.93;;;9.48;;
52322;SDS011;38263;52.920;6.238;2023-06-22T06:35:33;12.52;;;10.02;;
52322;SDS011;38263;52.920;6.238;2023-06-22T06:37:59;13.05;;;10.13;;
52322;SDS011;38263;52.920;6.238;2023-06-22T06:40:25;14.38;;;10.65;;
52322;SDS011;38263;52.920;6.238;2023-06-22T06:42:50;15.57;;;11.02;;
52322;SDS011;38263;52.920;6.238;2023-06-22T06:45:17;14.77;;;11.85;;
52322;SDS011;38263;52.920;6.238;2023-06-22T06:47:47;19.65;;;12.30;;
52322;SDS011;38263;52.920;6.238;2023-06-22T06:50:14;17.08;;;12.15;;
52322;SDS011;38263;52.920;6.238;2023-06-22T06:52:39;15.63;;;12.43;;
52322;SDS011;38263;52.920;6.238;2023-06-22T06:55:06;16.25;;;11.55;;
52322;SDS011;38263;52.920;6.238;2023-06-22T06:57:33;15.77;;;11.82;;
52322;SDS011;38263;52.920;6.238;2023-06-22T07:00:00;17.80;;;12.32;;
52322;SDS011;38263;52.920;6.238;2023-06-22T07:02:26;16.33;;;12.35;;
52322;SDS011;38263;52.920;6.238;2023-06-22T07:04:54;16.50;;;11.80;;
52322;SDS011;38263;52.920;6.238;2023-06-22T07:07:22;15.75;;;11.52;;
52322;SDS011;38263;52.920;6.238;2023-06-22T07:09:48;14.20;;;10.07;;
52322;SDS011;38263;52.920;6.238;2023-06-22T07:12:14;12.48;;;9.95;;
52322;SDS011;38263;52.920;6.238;2023-06-22T07:14:40;15.60;;;10.18;;
52322;SDS011;38263;52.920;6.238;2023-06-22T07:17:06;15.77;;;10.02;;
52322;SDS011;38263;52.920;6.238;2023-06-22T07:19:32;18.85;;;9.90;;
52322;SDS011;38263;52.920;6.238;2023-06-22T07:21:58;17.30;;;10.93;;
52322;SDS011;38263;52.920;6.238;2023-06-22T07:24:24;15.13;;;10.70;;
52322;SDS011;38263;52.920;6.238;2023-06-22T07:26:50;15.77;;;10.55;;
52322;SDS011;38263;52.920;6.238;2023-06-22T07:29:19;14.93;;;10.57;;
52322;SDS011;38263;52.920;6.238;2023-06-22T07:31:46;17.05;;;11.45;;
52322;SDS011;38263;52.920;6.238;2023-06-22T07:34:12;16.73;;;10.93;;
52322;SDS011;38263;52.920;6.238;2023-06-22T07:36:38;14.52;;;10.48;;
52322;SDS011;38263;52.920;6.238;2023-06-22T07:39:03;16.75;;;12.38;;
52322;SDS011;38263;52.920;6.238;2023-06-22T07:41:29;15.10;;;11.68;;
52322;SDS011;38263;52.920;6.238;2023-06-22T07:43:55;15.30;;;11.02;;
52322;SDS011;38263;52.920;6.238;2023-06-22T07:46:21;17.35;;;11.25;;
52322;SDS011;38263;52.920;6.238;2023-06-22T07:48:47;16.63;;;11.40;;
52322;SDS011;38263;52.920;6.238;2023-06-22T07:51:12;22.42;;;12.80;;
52322;SDS011;38263;52.920;6.238;2023-06-22T07:53:40;19.50;;;12.68;;
52322;SDS011;38263;52.920;6.238;2023-06-22T07:56:07;22.55;;;14.57;;
52322;SDS011;38263;52.920;6.238;2023-06-22T07:58:34;17.15;;;12.90;;
52322;SDS011;38263;52.920;6.238;2023-06-22T08:01:00;18.73;;;12.70;;
52322;SDS011;38263;52.920;6.238;2023-06-22T08:03:25;15.90;;;11.80;;
52322;SDS011;38263;52.920;6.238;2023-06-22T08:05:51;17.00;;;12.68;;
52322;SDS011;38263;52.920;6.238;2023-06-22T08:08:16;16.13;;;11.30;;
52322;SDS011;38263;52.920;6.238;2023-06-22T08:10:42;14.65;;;10.60;;
52322;SDS011;38263;52.920;6.238;2023-06-22T08:13:08;18.42;;;12.23;;
52322;SDS011;38263;52.920;6.238;2023-06-22T08:15:33;16.83;;;11.48;;
52322;SDS011;38263;52.920;6.238;2023-06-22T08:17:59;16.27;;;12.13;;
52322;SDS011;38263;52.920;6.238;2023-06-22T08:20:25;17.17;;;10.60;;
52322;SDS011;38263;52.920;6.238;2023-06-22T08:22:53;17.10;;;11.07;;
52322;SDS011;38263;52.920;6.238;2023-06-22T08:25:19;16.00;;;11.27;;
52322;SDS011;38263;52.920;6.238;2023-06-22T08:27:46;15.63;;;9.80;;
52322;SDS011;38263;52.920;6.238;2023-06-22T08:30:12;15.07;;;10.50;;
52322;SDS011;38263;52.920;6.238;2023-06-22T08:32:38;13.10;;;10.05;;
52322;SDS011;38263;52.920;6.238;2023-06-22T08:35:04;16.02;;;9.35;;
52322;SDS011;38263;52.920;6.238;2023-06-22T08:37:33;13.45;;;9.60;;
52322;SDS011;38263;52.920;6.238;2023-06-22T08:40:00;12.70;;;10.20;;
52322;SDS011;38263;52.920;6.238;2023-06-22T08:42:29;16.90;;;8.63;;
52322;SDS011;38263;52.920;6.238;2023-06-22T08:44:55;15.15;;;10.13;;
52322;SDS011;38263;52.920;6.238;2023-06-22T08:47:21;15.25;;;9.82;;
52322;SDS011;38263;52.920;6.238;2023-06-22T08:49:47;12.45;;;9.57;;
52322;SDS011;38263;52.920;6.238;2023-06-22T08:52:14;15.27;;;8.93;;
52322;SDS011;38263;52.920;6.238;2023-06-22T08:54:39;13.57;;;8.35;;
52322;SDS011;38263;52.920;6.238;2023-06-22T08:57:05;10.45;;;7.80;;
52322;SDS011;38263;52.920;6.238;2023-06-22T08:59:32;12.02;;;8.27;;
52322;SDS011;38263;52.920;6.238;2023-06-22T09:01:58;9.15;;;7.35;;
52322;SDS011;38263;52.920;6.238;2023-06-22T09:04:23;11.90;;;7.70;;
52322;SDS011;38263;52.920;6.238;2023-06-22T09:06:49;12.88;;;7.95;;
52322;SDS011;38263;52.920;6.238;2023-06-22T09:09:17;12.77;;;7.82;;
52322;SDS011;38263;52.920;6.238;2023-06-22T09:11:43;16.52;;;8.43;;
52322;SDS011;38263;52.920;6.238;2023-06-22T09:14:10;12.15;;;7.65;;
52322;SDS011;38263;52.920;6.238;2023-06-22T09:16:36;16.20;;;9.25;;
52322;SDS011;38263;52.920;6.238;2023-06-22T09:19:01;13.15;;;7.47;;
52322;SDS011;38263;52.920;6.238;2023-06-22T09:21:27;13.35;;;7.45;;
52322;SDS011;38263;52.920;6.238;2023-06-22T09:23:53;11.68;;;7.40;;
52322;SDS011;38263;52.920;6.238;2023-06-22T09:26:18;12.55;;;7.80;;
52322;SDS011;38263;52.920;6.238;2023-06-22T09:28:44;9.90;;;7.50;;
52322;SDS011;38263;52.920;6.238;2023-06-22T09:31:10;15.23;;;7.63;;
52322;SDS011;38263;52.920;6.238;2023-06-22T09:33:36;14.73;;;7.90;;
52322;SDS011;38263;52.920;6.238;2023-06-22T09:36:05;9.35;;;7.55;;
52322;SDS011;38263;52.920;6.238;2023-06-22T09:38:41;11.18;;;7.32;;
52322;SDS011;38263;52.920;6.238;2023-06-22T09:41:06;10.65;;;7.20;;
52322;SDS011;38263;52.920;6.238;2023-06-22T09:43:32;11.98;;;7.65;;
52322;SDS011;38263;52.920;6.238;2023-06-22T09:46:01;10.57;;;6.88;;
52322;SDS011;38263;52.920;6.238;2023-06-22T09:48:27;12.68;;;7.63;;
52322;SDS011;38263;52.920;6.238;2023-06-22T09:50:55;12.95;;;7.55;;
52322;SDS011;38263;52.920;6.238;2023-06-22T09:53:21;11.00;;;7.90;;
52322;SDS011;38263;52.920;6.238;2023-06-22T09:55:46;11.95;;;7.65;;
52322;SDS011;38263;52.920;6.238;2023-06-22T09:58:12;12.18;;;7.60;;
52322;SDS011;38263;52.920;6.238;2023-06-22T10:00:38;10.20;;;6.30;;
52322;SDS011;38263;52.920;6.238;2023-06-22T10:03:03;9.38;;;6.90;;
52322;SDS011;38263;52.920;6.238;2023-06-22T10:05:29;10.48;;;6.40;;
52322;SDS011;38263;52.920;6.238;2023-06-22T10:07:54;10.35;;;6.70;;
52322;SDS011;38263;52.920;6.238;2023-06-22T10:10:20;10.70;;;7.68;;
52322;SDS011;38263;52.920;6.238;2023-06-22T10:12:46;9.18;;;7.30;;
52322;SDS011;38263;52.920;6.238;2023-06-22T10:15:13;10.40;;;6.85;;
52322;SDS011;38263;52.920;6.238;2023-06-22T10:17:39;10.63;;;6.28;;
52322;SDS011;38263;52.920;6.238;2023-06-22T10:20:08;12.50;;;6.30;;
52322;SDS011;38263;52.920;6.238;2023-06-22T10:22:43;9.27;;;5.53;;
52322;SDS011;38263;52.920;6.238;2023-06-22T10:25:12;8.75;;;5.15;;
52322;SDS011;38263;52.920;6.238;2023-06-22T10:27:38;10.25;;;6.25;;
52322;SDS011;38263;52.920;6.238;2023-06-22T10:30:10;6.95;;;5.45;;
52322;SDS011;38263;52.920;6.238;2023-06-22T10:32:37;7.65;;;5.18;;
52322;SDS011;38263;52.920;6.238;2023-06-22T10:35:04;10.30;;;5.85;;
52322;SDS011;38263;52.920;6.238;2023-06-22T10:37:30;6.80;;;4.18;;
52322;SDS011;38263;52.920;6.238;2023-06-22T10:39:56;6.93;;;4.05;;
52322;SDS011;38263;52.920;6.238;2023-06-22T10:42:21;7.30;;;4.93;;
52322;SDS011;38263;52.920;6.238;2023-06-22T10:44:47;7.55;;;4.53;;
52322;SDS011;38263;52.920;6.238;2023-06-22T10:47:13;7.72;;;5.20;;
52322;SDS011;38263;52.920;6.238;2023-06-22T10:49:38;6.80;;;4.07;;
52322;SDS011;38263;52.920;6.238;2023-06-22T10:52:05;12.35;;;5.25;;
52322;SDS011;38263;52.920;6.238;2023-06-22T10:54:32;7.13;;;4.35;;
52322;SDS011;38263;52.920;6.238;2023-06-22T10:56:59;10.90;;;5.28;;
52322;SDS011;38263;52.920;6.238;2023-06-22T10:59:24;5.78;;;4.57;;
52322;SDS011;38263;52.920;6.238;2023-06-22T11:01:51;6.45;;;4.70;;
52322;SDS011;38263;52.920;6.238;2023-06-22T11:04:17;8.57;;;4.90;;
52322;SDS011;38263;52.920;6.238;2023-06-22T11:06:42;8.73;;;5.20;;
52322;SDS011;38263;52.920;6.238;2023-06-22T11:09:08;9.95;;;4.78;;
52322;SDS011;38263;52.920;6.238;2023-06-22T11:11:34;7.45;;;4.35;;
52322;SDS011;38263;52.920;6.238;2023-06-22T11:14:00;7.70;;;5.10;;
52322;SDS011;38263;52.920;6.238;2023-06-22T11:16:25;6.50;;;4.10;;
52322;SDS011;38263;52.920;6.238;2023-06-22T11:18:51;8.55;;;4.38;;
52322;SDS011;38263;52.920;6.238;2023-06-22T11:21:16;10.57;;;4.38;;
52322;SDS011;38263;52.920;6.238;2023-06-22T11:23:42;6.05;;;4.03;;
52322;SDS011;38263;52.920;6.238;2023-06-22T11:26:08;7.95;;;4.72;;
52322;SDS011;38263;52.920;6.238;2023-06-22T11:28:33;5.70;;;4.28;;
52322;SDS011;38263;52.920;6.238;2023-06-22T11:30:59;8.20;;;4.28;;
52322;SDS011;38263;52.920;6.238;2023-06-22T11:33:25;7.18;;;4.40;;
52322;SDS011;38263;52.920;6.238;2023-06-22T11:35:50;8.93;;;4.35;;
52322;SDS011;38263;52.920;6.238;2023-06-22T11:38:16;6.03;;;3.55;;
52322;SDS011;38263;52.920;6.238;2023-06-22T11:40:42;6.50;;;3.85;;
52322;SDS011;38263;52.920;6.238;2023-06-22T11:43:07;6.95;;;3.17;;
52322;SDS011;38263;52.920;6.238;2023-06-22T11:45:33;6.25;;;4.00;;
52322;SDS011;38263;52.920;6.238;2023-06-22T11:47:58;6.20;;;3.65;;
52322;SDS011;38263;52.920;6.238;2023-06-22T11:50:24;5.68;;;3.75;;
52322;SDS011;38263;52.920;6.238;2023-06-22T11:52:50;6.15;;;3.85;;
52322;SDS011;38263;52.920;6.238;2023-06-22T11:55:15;6.60;;;4.32;;
52322;SDS011;38263;52.920;6.238;2023-06-22T11:57:53;5.40;;;3.70;;
52322;SDS011;38263;52.920;6.238;2023-06-22T12:00:20;5.85;;;3.88;;
52322;SDS011;38263;52.920;6.238;2023-06-22T12:02:48;6.82;;;3.65;;
52322;SDS011;38263;52.920;6.238;2023-06-22T12:05:16;5.15;;;3.25;;
52322;SDS011;38263;52.920;6.238;2023-06-22T12:07:43;5.95;;;4.63;;
52322;SDS011;38263;52.920;6.238;2023-06-22T12:10:08;8.55;;;4.40;;
52322;SDS011;38263;52.920;6.238;2023-06-22T12:12:34;7.00;;;4.18;;
52322;SDS011;38263;52.920;6.238;2023-06-22T12:15:00;5.70;;;3.90;;
52322;SDS011;38263;52.920;6.238;2023-06-22T12:17:28;7.07;;;3.38;;
52322;SDS011;38263;52.920;6.238;2023-06-22T12:19:54;5.53;;;3.72;;
52322;SDS011;38263;52.920;6.238;2023-06-22T12:22:20;6.28;;;3.88;;
52322;SDS011;38263;52.920;6.238;2023-06-22T12:24:46;5.75;;;3.78;;
52322;SDS011;38263;52.920;6.238;2023-06-22T12:27:11;6.10;;;4.15;;
52322;SDS011;38263;52.920;6.238;2023-06-22T12:29:37;7.30;;;4.18;;
52322;SDS011;38263;52.920;6.238;2023-06-22T12:32:03;5.03;;;4.10;;
52322;SDS011;38263;52.920;6.238;2023-06-22T12:34:29;4.50;;;3.40;;
52322;SDS011;38263;52.920;6.238;2023-06-22T12:36:54;3.95;;;3.22;;
52322;SDS011;38263;52.920;6.238;2023-06-22T12:39:20;6.07;;;3.65;;
52322;SDS011;38263;52.920;6.238;2023-06-22T12:41:46;6.38;;;4.03;;
52322;SDS011;38263;52.920;6.238;2023-06-22T12:44:11;5.88;;;4.75;;
52322;SDS011;38263;52.920;6.238;2023-06-22T12:46:37;6.13;;;3.97;;
52322;SDS011;38263;52.920;6.238;2023-06-22T12:49:03;4.75;;;3.58;;
52322;SDS011;38263;52.920;6.238;2023-06-22T12:51:29;8.75;;;4.00;;
52322;SDS011;38263;52.920;6.238;2023-06-22T12:53:55;8.45;;;3.60;;
52322;SDS011;38263;52.920;6.238;2023-06-22T12:56:21;6.07;;;3.65;;
52322;SDS011;38263;52.920;6.238;2023-06-22T12:58:46;7.72;;;3.33;;
52322;SDS011;38263;52.920;6.238;2023-06-22T13:01:12;6.85;;;3.80;;
52322;SDS011;38263;52.920;6.238;2023-06-22T13:03:37;4.50;;;4.10;;
52322;SDS011;38263;52.920;6.238;2023-06-22T13:06:03;7.97;;;4.45;;
52322;SDS011;38263;52.920;6.238;2023-06-22T13:08:29;7.53;;;3.88;;
52322;SDS011;38263;52.920;6.238;2023-06-22T13:10:55;5.35;;;3.33;;
52322;SDS011;38263;52.920;6.238;2023-06-22T13:13:24;5.75;;;3.95;;
52322;SDS011;38263;52.920;6.238;2023-06-22T13:15:50;6.18;;;3.78;;
52322;SDS011;38263;52.920;6.238;2023-06-22T13:18:17;7.50;;;3.75;;
52322;SDS011;38263;52.920;6.238;2023-06-22T13:20:43;7.88;;;4.90;;
52322;SDS011;38263;52.920;6.238;2023-06-22T13:23:10;5.70;;;3.85;;
52322;SDS011;38263;52.920;6.238;2023-06-22T13:25:36;8.65;;;4.13;;
52322;SDS011;38263;52.920;6.238;2023-06-22T13:28:01;6.75;;;4.57;;
52322;SDS011;38263;52.920;6.238;2023-06-22T13:30:27;6.35;;;4.30;;
52322;SDS011;38263;52.920;6.238;2023-06-22T13:32:53;8.40;;;5.55;;
52322;SDS011;38263;52.920;6.238;2023-06-22T13:35:18;8.23;;;4.72;;
52322;SDS011;38263;52.920;6.238;2023-06-22T13:37:44;6.75;;;4.47;;
52322;SDS011;38263;52.920;6.238;2023-06-22T13:40:09;8.00;;;4.28;;
52322;SDS011;38263;52.920;6.238;2023-06-22T13:42:35;7.22;;;5.13;;
52322;SDS011;38263;52.920;6.238;2023-06-22T13:45:01;7.63;;;5.22;;
52322;SDS011;38263;52.920;6.238;2023-06-22T13:47:27;6.18;;;5.20;;
52322;SDS011;38263;52.920;6.238;2023-06-22T13:49:53;6.80;;;4.60;;
52322;SDS011;38263;52.920;6.238;2023-06-22T13:52:19;6.53;;;4.65;;
52322;SDS011;38263;52.920;6.238;2023-06-22T13:54:45;7.85;;;4.53;;
52322;SDS011;38263;52.920;6.238;2023-06-22T13:57:10;10.40;;;5.15;;
52322;SDS011;38263;52.920;6.238;2023-06-22T13:59:36;8.55;;;5.15;;
52322;SDS011;38263;52.920;6.238;2023-06-22T14:02:01;6.57;;;4.78;;
52322;SDS011;38263;52.920;6.238;2023-06-22T14:04:27;8.10;;;5.13;;
52322;SDS011;38263;52.920;6.238;2023-06-22T14:06:53;10.13;;;6.35;;
52322;SDS011;38263;52.920;6.238;2023-06-22T14:09:20;8.77;;;5.72;;
52322;SDS011;38263;52.920;6.238;2023-06-22T14:11:46;10.40;;;5.13;;
52322;SDS011;38263;52.920;6.238;2023-06-22T14:14:12;9.23;;;5.05;;
52322;SDS011;38263;52.920;6.238;2023-06-22T14:16:37;9.52;;;5.22;;
52322;SDS011;38263;52.920;6.238;2023-06-22T14:19:03;10.25;;;5.93;;
52322;SDS011;38263;52.920;6.238;2023-06-22T14:21:28;7.97;;;5.65;;
52322;SDS011;38263;52.920;6.238;2023-06-22T14:23:54;8.35;;;5.65;;
52322;SDS011;38263;52.920;6.238;2023-06-22T14:26:20;11.25;;;7.00;;
52322;SDS011;38263;52.920;6.238;2023-06-22T14:28:46;8.93;;;6.45;;
52322;SDS011;38263;52.920;6.238;2023-06-22T14:31:14;9.52;;;6.53;;
52322;SDS011;38263;52.920;6.238;2023-06-22T14:33:40;10.32;;;6.63;;
52322;SDS011;38263;52.920;6.238;2023-06-22T14:36:05;9.77;;;6.60;;
52322;SDS011;38263;52.920;6.238;2023-06-22T14:38:31;11.25;;;6.97;;